sensor_id;sensor_type;location;lat;lon;timestamp;temperature;humidity
40077;DHT22;25777;47.824;18.982;2023-07-20T00:01:20;21.50;99.90
40077;DHT22;25777;47.824;18.982;2023-07-20T00:06:34;21.40;99.90
40077;DHT22;25777;47.824;18.982;2023-07-20T00:09:01;21.40;99.90
40077;DHT22;25777;47.824;18.982;2023-07-20T00:17:06;21.40;99.90
40077;DHT22;25777;47.824;18.982;2023-07-20T00:19:34;21.40;99.90
40077;DHT22;25777;47.824;18.982;2023-07-20T00:22:09;21.40;99.90
40077;DHT22;25777;47.824;18.982;2023-07-20T00:24:43;21.40;99.90
40077;DHT22;25777;47.824;18.982;2023-07-20T00:27:09;21.30;99.90
40077;DHT22;25777;47.824;18.982;2023-07-20T00:29:36;21.30;99.90
40077;DHT22;25777;47.824;18.982;2023-07-20T00:32:08;21.30;99.90
40077;DHT22;25777;47.824;18.982;2023-07-20T00:34:43;21.30;99.90
40077;DHT22;25777;47.824;18.982;2023-07-20T00:37:09;21.30;99.90
40077;DHT22;25777;47.824;18.982;2023-07-20T00:42:04;21.30;99.90
40077;DHT22;25777;47.824;18.982;2023-07-20T00:44:31;21.20;99.90
40077;DHT22;25777;47.824;18.982;2023-07-20T00:46:56;21.20;99.90
40077;DHT22;25777;47.824;18.982;2023-07-20T00:49:22;21.20;99.90
40077;DHT22;25777;47.824;18.982;2023-07-20T00:51:49;21.20;99.90
40077;DHT22;25777;47.824;18.982;2023-07-20T00:56:50;21.10;99.90
40077;DHT22;25777;47.824;18.982;2023-07-20T01:04:19;20.90;99.90
40077;DHT22;25777;47.824;18.982;2023-07-20T01:10:32;20.90;99.90
40077;DHT22;25777;47.824;18.982;2023-07-20T01:17:58;20.70;99.90
40077;DHT22;25777;47.824;18.982;2023-07-20T01:20:27;20.80;99.90
40077;DHT22;25777;47.824;18.982;2023-07-20T01:25:57;21.00;99.90
40077;DHT22;25777;47.824;18.982;2023-07-20T01:33:50;21.00;99.90
40077;DHT22;25777;47.824;18.982;2023-07-20T01:36:19;20.90;99.90
40077;DHT22;25777;47.824;18.982;2023-07-20T01:38:46;20.90;99.90
40077;DHT22;25777;47.824;18.982;2023-07-20T01:41:13;20.90;99.90
40077;DHT22;25777;47.824;18.982;2023-07-20T01:51:41;20.70;99.90
40077;DHT22;25777;47.824;18.982;2023-07-20T01:54:23;20.70;99.90
40077;DHT22;25777;47.824;18.982;2023-07-20T01:56:48;20.70;99.90
40077;DHT22;25777;47.824;18.982;2023-07-20T01:59:14;20.70;99.90
40077;DHT22;25777;47.824;18.982;2023-07-20T02:04:40;20.70;99.90
40077;DHT22;25777;47.824;18.982;2023-07-20T02:07:06;20.50;99.90
40077;DHT22;25777;47.824;18.982;2023-07-20T02:09:32;20.40;99.90
40077;DHT22;25777;47.824;18.982;2023-07-20T02:14:27;20.30;99.90
40077;DHT22;25777;47.824;18.982;2023-07-20T02:19:25;20.20;99.90
40077;DHT22;25777;47.824;18.982;2023-07-20T02:24:27;20.30;99.90
40077;DHT22;25777;47.824;18.982;2023-07-20T02:26:54;20.40;99.90
40077;DHT22;25777;47.824;18.982;2023-07-20T02:29:21;20.40;99.90
40077;DHT22;25777;47.824;18.982;2023-07-20T02:31:48;20.40;99.90
40077;DHT22;25777;47.824;18.982;2023-07-20T02:34:23;20.30;99.90
40077;DHT22;25777;47.824;18.982;2023-07-20T02:36:56;20.20;99.90
40077;DHT22;25777;47.824;18.982;2023-07-20T02:39:29;20.20;99.90
40077;DHT22;25777;47.824;18.982;2023-07-20T02:41:54;20.30;99.90
40077;DHT22;25777;47.824;18.982;2023-07-20T02:46:52;20.20;99.90
40077;DHT22;25777;47.824;18.982;2023-07-20T02:51:50;20.00;99.90
40077;DHT22;25777;47.824;18.982;2023-07-20T02:54:33;20.10;99.90
40077;DHT22;25777;47.824;18.982;2023-07-20T02:56:59;20.10;99.90
40077;DHT22;25777;47.824;18.982;2023-07-20T03:08:15;20.00;99.90
40077;DHT22;25777;47.824;18.982;2023-07-20T03:10:52;19.90;99.90
40077;DHT22;25777;47.824;18.982;2023-07-20T03:13:18;19.90;99.90
40077;DHT22;25777;47.824;18.982;2023-07-20T03:18:25;19.80;99.90
40077;DHT22;25777;47.824;18.982;2023-07-20T03:23:50;19.90;99.90
40077;DHT22;25777;47.824;18.982;2023-07-20T03:26:27;19.90;99.90
40077;DHT22;25777;47.824;18.982;2023-07-20T03:28:55;19.90;99.90
40077;DHT22;25777;47.824;18.982;2023-07-20T03:31:22;19.90;99.90
40077;DHT22;25777;47.824;18.982;2023-07-20T03:33:48;19.90;99.90
40077;DHT22;25777;47.824;18.982;2023-07-20T03:39:12;19.90;99.90
40077;DHT22;25777;47.824;18.982;2023-07-20T03:41:38;19.80;99.90
40077;DHT22;25777;47.824;18.982;2023-07-20T03:44:09;19.80;99.90
40077;DHT22;25777;47.824;18.982;2023-07-20T03:46:34;19.90;99.90
40077;DHT22;25777;47.824;18.982;2023-07-20T03:51:32;19.80;99.90
40077;DHT22;25777;47.824;18.982;2023-07-20T03:53:59;19.80;99.90
40077;DHT22;25777;47.824;18.982;2023-07-20T03:59:05;19.90;99.90
40077;DHT22;25777;47.824;18.982;2023-07-20T04:01:31;19.90;99.90
40077;DHT22;25777;47.824;18.982;2023-07-20T04:04:07;20.00;99.90
40077;DHT22;25777;47.824;18.982;2023-07-20T04:06:33;20.00;99.90
40077;DHT22;25777;47.824;18.982;2023-07-20T04:08:59;20.00;99.90
40077;DHT22;25777;47.824;18.982;2023-07-20T04:11:26;20.00;99.90
40077;DHT22;25777;47.824;18.982;2023-07-20T04:13:52;20.10;99.90
40077;DHT22;25777;47.824;18.982;2023-07-20T04:19:02;20.30;99.90
40077;DHT22;25777;47.824;18.982;2023-07-20T04:24:05;20.40;99.90
40077;DHT22;25777;47.824;18.982;2023-07-20T04:26:31;20.40;99.90
40077;DHT22;25777;47.824;18.982;2023-07-20T04:28:57;20.40;99.90
40077;DHT22;25777;47.824;18.982;2023-07-20T04:31:24;20.40;99.90
40077;DHT22;25777;47.824;18.982;2023-07-20T04:34:05;20.30;99.90
40077;DHT22;25777;47.824;18.982;2023-07-20T04:36:31;20.30;99.90
40077;DHT22;25777;47.824;18.982;2023-07-20T04:38:57;20.30;99.90
40077;DHT22;25777;47.824;18.982;2023-07-20T04:41:23;20.40;99.90
40077;DHT22;25777;47.824;18.982;2023-07-20T04:46:47;20.40;99.90
40077;DHT22;25777;47.824;18.982;2023-07-20T04:49:14;20.50;99.90
40077;DHT22;25777;47.824;18.982;2023-07-20T04:51:41;20.60;99.90
40077;DHT22;25777;47.824;18.982;2023-07-20T04:54:09;20.70;99.90
40077;DHT22;25777;47.824;18.982;2023-07-20T05:01:35;20.80;99.90
40077;DHT22;25777;47.824;18.982;2023-07-20T05:04:04;20.80;99.90
40077;DHT22;25777;47.824;18.982;2023-07-20T05:06:30;20.90;99.90
40077;DHT22;25777;47.824;18.982;2023-07-20T05:14:19;21.00;99.90
40077;DHT22;25777;47.824;18.982;2023-07-20T05:16:44;21.10;99.90
40077;DHT22;25777;47.824;18.982;2023-07-20T05:22:04;21.00;99.90
40077;DHT22;25777;47.824;18.982;2023-07-20T05:24:33;21.00;99.90
40077;DHT22;25777;47.824;18.982;2023-07-20T05:26:58;21.00;99.90
40077;DHT22;25777;47.824;18.982;2023-07-20T05:29:24;21.10;99.90
40077;DHT22;25777;47.824;18.982;2023-07-20T05:31:51;21.20;99.90
40077;DHT22;25777;47.824;18.982;2023-07-20T05:34:19;21.30;99.90
40077;DHT22;25777;47.824;18.982;2023-07-20T05:36:46;21.40;99.90
40077;DHT22;25777;47.824;18.982;2023-07-20T05:39:12;21.40;99.90
40077;DHT22;25777;47.824;18.982;2023-07-20T05:41:39;21.50;99.90
40077;DHT22;25777;47.824;18.982;2023-07-20T05:44:05;21.50;99.90
40077;DHT22;25777;47.824;18.982;2023-07-20T05:46:43;21.60;99.90
40077;DHT22;25777;47.824;18.982;2023-07-20T05:52:07;21.80;99.90
40077;DHT22;25777;47.824;18.982;2023-07-20T05:54:35;21.80;99.90
40077;DHT22;25777;47.824;18.982;2023-07-20T05:57:02;21.80;99.90
40077;DHT22;25777;47.824;18.982;2023-07-20T05:59:28;21.90;99.90
40077;DHT22;25777;47.824;18.982;2023-07-20T06:02:07;22.00;99.90
40077;DHT22;25777;47.824;18.982;2023-07-20T06:04:42;22.10;99.90
40077;DHT22;25777;47.824;18.982;2023-07-20T06:07:16;22.20;99.90
40077;DHT22;25777;47.824;18.982;2023-07-20T06:09:50;22.20;99.90
40077;DHT22;25777;47.824;18.982;2023-07-20T06:12:26;22.30;99.90
40077;DHT22;25777;47.824;18.982;2023-07-20T06:14:53;22.30;99.90
40077;DHT22;25777;47.824;18.982;2023-07-20T06:17:26;22.50;99.90
40077;DHT22;25777;47.824;18.982;2023-07-20T06:19:52;22.50;99.90
40077;DHT22;25777;47.824;18.982;2023-07-20T06:24:59;22.80;99.90
40077;DHT22;25777;47.824;18.982;2023-07-20T06:27:36;22.90;99.90
40077;DHT22;25777;47.824;18.982;2023-07-20T06:30:01;23.00;99.90
40077;DHT22;25777;47.824;18.982;2023-07-20T06:32:36;23.10;99.90
40077;DHT22;25777;47.824;18.982;2023-07-20T06:35:10;23.10;99.90
40077;DHT22;25777;47.824;18.982;2023-07-20T06:37:38;23.20;99.90
40077;DHT22;25777;47.824;18.982;2023-07-20T06:42:34;23.40;99.90
40077;DHT22;25777;47.824;18.982;2023-07-20T06:45:00;23.40;99.90
40077;DHT22;25777;47.824;18.982;2023-07-20T06:50:03;23.60;99.90
40077;DHT22;25777;47.824;18.982;2023-07-20T06:52:29;23.60;99.10
40077;DHT22;25777;47.824;18.982;2023-07-20T06:55:07;23.70;99.50
40077;DHT22;25777;47.824;18.982;2023-07-20T07:00:02;24.10;99.90
40077;DHT22;25777;47.824;18.982;2023-07-20T07:02:34;24.10;98.90
40077;DHT22;25777;47.824;18.982;2023-07-20T07:07:54;23.90;97.60
40077;DHT22;25777;47.824;18.982;2023-07-20T07:10:20;23.90;98.80
40077;DHT22;25777;47.824;18.982;2023-07-20T07:12:46;24.10;96.80
40077;DHT22;25777;47.824;18.982;2023-07-20T07:15:12;24.40;97.20
40077;DHT22;25777;47.824;18.982;2023-07-20T07:22:56;24.90;93.10
40077;DHT22;25777;47.824;18.982;2023-07-20T07:28:04;24.60;92.10
40077;DHT22;25777;47.824;18.982;2023-07-20T07:30:29;24.20;92.00
40077;DHT22;25777;47.824;18.982;2023-07-20T07:32:55;24.10;92.50
40077;DHT22;25777;47.824;18.982;2023-07-20T07:35:21;23.90;92.10
40077;DHT22;25777;47.824;18.982;2023-07-20T07:40:35;23.70;91.70
40077;DHT22;25777;47.824;18.982;2023-07-20T07:43:01;23.70;92.50
40077;DHT22;25777;47.824;18.982;2023-07-20T07:47:56;23.60;90.80
40077;DHT22;25777;47.824;18.982;2023-07-20T07:50:23;23.60;91.60
40077;DHT22;25777;47.824;18.982;2023-07-20T07:52:49;23.60;91.70
40077;DHT22;25777;47.824;18.982;2023-07-20T07:55:14;23.70;92.50
40077;DHT22;25777;47.824;18.982;2023-07-20T08:02:51;24.20;89.30
40077;DHT22;25777;47.824;18.982;2023-07-20T08:07:48;24.40;85.90
40077;DHT22;25777;47.824;18.982;2023-07-20T08:10:15;24.50;84.20
40077;DHT22;25777;47.824;18.982;2023-07-20T08:12:41;24.50;85.60
40077;DHT22;25777;47.824;18.982;2023-07-20T08:17:37;24.50;86.40
40077;DHT22;25777;47.824;18.982;2023-07-20T08:20:03;24.50;83.80
40077;DHT22;25777;47.824;18.982;2023-07-20T08:22:31;24.40;84.90
40077;DHT22;25777;47.824;18.982;2023-07-20T08:24:56;24.40;80.90
40077;DHT22;25777;47.824;18.982;2023-07-20T08:27:22;24.40;83.50
40077;DHT22;25777;47.824;18.982;2023-07-20T08:29:51;24.50;82.70
40077;DHT22;25777;47.824;18.982;2023-07-20T08:32:21;24.50;80.70
40077;DHT22;25777;47.824;18.982;2023-07-20T08:34:47;24.60;82.80
40077;DHT22;25777;47.824;18.982;2023-07-20T08:37:22;24.70;80.20
40077;DHT22;25777;47.824;18.982;2023-07-20T08:39:49;24.60;84.80
40077;DHT22;25777;47.824;18.982;2023-07-20T08:42:17;25.00;87.30
40077;DHT22;25777;47.824;18.982;2023-07-20T08:44:43;25.60;85.10
40077;DHT22;25777;47.824;18.982;2023-07-20T08:47:18;25.70;81.50
40077;DHT22;25777;47.824;18.982;2023-07-20T08:49:48;25.60;78.50
40077;DHT22;25777;47.824;18.982;2023-07-20T08:52:14;25.50;84.30
40077;DHT22;25777;47.824;18.982;2023-07-20T08:54:39;25.50;85.50
40077;DHT22;25777;47.824;18.982;2023-07-20T08:57:05;25.70;79.10
40077;DHT22;25777;47.824;18.982;2023-07-20T08:59:31;25.70;82.20
40077;DHT22;25777;47.824;18.982;2023-07-20T09:04:44;25.40;80.30
40077;DHT22;25777;47.824;18.982;2023-07-20T09:09:48;25.50;85.70
40077;DHT22;25777;47.824;18.982;2023-07-20T09:12:25;25.60;87.90
40077;DHT22;25777;47.824;18.982;2023-07-20T09:14:53;25.90;86.10
40077;DHT22;25777;47.824;18.982;2023-07-20T09:17:34;26.40;83.10
40077;DHT22;25777;47.824;18.982;2023-07-20T09:20:09;27.00;83.40
40077;DHT22;25777;47.824;18.982;2023-07-20T09:22:43;27.50;78.30
40077;DHT22;25777;47.824;18.982;2023-07-20T09:25:14;27.70;76.70
40077;DHT22;25777;47.824;18.982;2023-07-20T09:27:41;27.80;76.00
40077;DHT22;25777;47.824;18.982;2023-07-20T09:30:07;27.80;72.80
40077;DHT22;25777;47.824;18.982;2023-07-20T09:32:41;27.30;74.80
40077;DHT22;25777;47.824;18.982;2023-07-20T09:35:18;27.40;72.90
40077;DHT22;25777;47.824;18.982;2023-07-20T09:42:48;28.20;69.80
40077;DHT22;25777;47.824;18.982;2023-07-20T09:45:17;28.70;66.60
40077;DHT22;25777;47.824;18.982;2023-07-20T09:47:52;28.50;66.90
40077;DHT22;25777;47.824;18.982;2023-07-20T09:50:33;28.00;64.40
40077;DHT22;25777;47.824;18.982;2023-07-20T09:53:14;27.80;67.00
40077;DHT22;25777;47.824;18.982;2023-07-20T09:58:21;28.20;68.80
40077;DHT22;25777;47.824;18.982;2023-07-20T10:00:54;28.70;65.50
40077;DHT22;25777;47.824;18.982;2023-07-20T10:03:26;28.00;64.10
40077;DHT22;25777;47.824;18.982;2023-07-20T10:06:06;27.60;65.90
40077;DHT22;25777;47.824;18.982;2023-07-20T10:08:38;27.40;65.80
40077;DHT22;25777;47.824;18.982;2023-07-20T10:11:07;27.20;65.40
40077;DHT22;25777;47.824;18.982;2023-07-20T10:13:34;27.60;64.20
40077;DHT22;25777;47.824;18.982;2023-07-20T10:16:11;28.20;65.70
40077;DHT22;25777;47.824;18.982;2023-07-20T10:21:33;29.10;62.20
40077;DHT22;25777;47.824;18.982;2023-07-20T10:26:57;29.20;61.50
40077;DHT22;25777;47.824;18.982;2023-07-20T10:31:55;28.40;59.50
40077;DHT22;25777;47.824;18.982;2023-07-20T10:34:31;27.80;61.00
40077;DHT22;25777;47.824;18.982;2023-07-20T10:36:58;27.50;66.30
40077;DHT22;25777;47.824;18.982;2023-07-20T10:42:10;27.30;65.30
40077;DHT22;25777;47.824;18.982;2023-07-20T10:44:40;27.80;66.40
40077;DHT22;25777;47.824;18.982;2023-07-20T10:47:09;28.60;62.80
40077;DHT22;25777;47.824;18.982;2023-07-20T10:52:20;29.30;59.30
40077;DHT22;25777;47.824;18.982;2023-07-20T10:57:29;29.20;54.10
40077;DHT22;25777;47.824;18.982;2023-07-20T11:00:14;29.50;61.90
40077;DHT22;25777;47.824;18.982;2023-07-20T11:02:46;30.30;56.80
40077;DHT22;25777;47.824;18.982;2023-07-20T11:07:57;30.70;57.20
40077;DHT22;25777;47.824;18.982;2023-07-20T11:10:23;30.50;55.90
40077;DHT22;25777;47.824;18.982;2023-07-20T11:15:48;30.40;56.80
40077;DHT22;25777;47.824;18.982;2023-07-20T11:18:39;30.70;52.90
40077;DHT22;25777;47.824;18.982;2023-07-20T11:26:07;30.90;52.00
40077;DHT22;25777;47.824;18.982;2023-07-20T11:28:34;31.00;53.40
40077;DHT22;25777;47.824;18.982;2023-07-20T11:31:01;30.80;56.30
40077;DHT22;25777;47.824;18.982;2023-07-20T11:33:33;30.70;53.60
40077;DHT22;25777;47.824;18.982;2023-07-20T11:35:59;30.80;52.30
40077;DHT22;25777;47.824;18.982;2023-07-20T11:38:25;30.90;53.90
40077;DHT22;25777;47.824;18.982;2023-07-20T11:43:42;30.90;51.70
40077;DHT22;25777;47.824;18.982;2023-07-20T11:46:08;30.60;52.40
40077;DHT22;25777;47.824;18.982;2023-07-20T11:48:36;30.80;54.10
40077;DHT22;25777;47.824;18.982;2023-07-20T11:53:31;30.90;54.10
40077;DHT22;25777;47.824;18.982;2023-07-20T11:56:06;30.80;53.50
40077;DHT22;25777;47.824;18.982;2023-07-20T12:03:31;30.70;53.40
40077;DHT22;25777;47.824;18.982;2023-07-20T12:06:05;30.30;53.60
40077;DHT22;25777;47.824;18.982;2023-07-20T12:08:41;29.30;52.60
40077;DHT22;25777;47.824;18.982;2023-07-20T12:11:08;28.80;54.10
40077;DHT22;25777;47.824;18.982;2023-07-20T12:13:38;28.80;55.60
40077;DHT22;25777;47.824;18.982;2023-07-20T12:16:13;29.50;55.60
40077;DHT22;25777;47.824;18.982;2023-07-20T12:18:45;29.70;54.60
40077;DHT22;25777;47.824;18.982;2023-07-20T12:21:19;29.60;56.00
40077;DHT22;25777;47.824;18.982;2023-07-20T12:23:48;29.90;53.50
40077;DHT22;25777;47.824;18.982;2023-07-20T12:26:14;30.00;55.30
40077;DHT22;25777;47.824;18.982;2023-07-20T12:28:41;30.10;56.90
40077;DHT22;25777;47.824;18.982;2023-07-20T12:31:08;30.30;52.60
40077;DHT22;25777;47.824;18.982;2023-07-20T12:33:36;30.50;50.70
40077;DHT22;25777;47.824;18.982;2023-07-20T12:38:32;30.30;50.00
40077;DHT22;25777;47.824;18.982;2023-07-20T12:41:07;30.10;50.10
40077;DHT22;25777;47.824;18.982;2023-07-20T12:43:32;30.30;49.60
40077;DHT22;25777;47.824;18.982;2023-07-20T12:45:59;30.30;51.20
40077;DHT22;25777;47.824;18.982;2023-07-20T12:48:25;30.10;49.30
40077;DHT22;25777;47.824;18.982;2023-07-20T12:50:58;29.80;52.40
40077;DHT22;25777;47.824;18.982;2023-07-20T12:53:25;30.10;51.80
40077;DHT22;25777;47.824;18.982;2023-07-20T12:55:50;30.50;49.70
40077;DHT22;25777;47.824;18.982;2023-07-20T13:01:17;30.50;50.40
40077;DHT22;25777;47.824;18.982;2023-07-20T13:03:56;30.70;49.80
40077;DHT22;25777;47.824;18.982;2023-07-20T13:06:21;30.80;51.20
40077;DHT22;25777;47.824;18.982;2023-07-20T13:16:50;30.60;50.00
40077;DHT22;25777;47.824;18.982;2023-07-20T13:19:22;30.40;49.00
40077;DHT22;25777;47.824;18.982;2023-07-20T13:21:49;31.00;51.40
40077;DHT22;25777;47.824;18.982;2023-07-20T13:29:26;30.50;53.60
40077;DHT22;25777;47.824;18.982;2023-07-20T13:34:34;30.60;46.40
40077;DHT22;25777;47.824;18.982;2023-07-20T13:42:12;30.80;49.00
40077;DHT22;25777;47.824;18.982;2023-07-20T13:44:38;30.50;48.90
40077;DHT22;25777;47.824;18.982;2023-07-20T13:47:04;30.70;48.50
40077;DHT22;25777;47.824;18.982;2023-07-20T13:49:32;30.20;47.80
40077;DHT22;25777;47.824;18.982;2023-07-20T13:51:58;30.00;48.50
40077;DHT22;25777;47.824;18.982;2023-07-20T13:54:24;30.10;48.40
40077;DHT22;25777;47.824;18.982;2023-07-20T13:56:50;29.80;49.80
40077;DHT22;25777;47.824;18.982;2023-07-20T13:59:18;29.90;50.50
40077;DHT22;25777;47.824;18.982;2023-07-20T14:01:45;29.90;49.90
40077;DHT22;25777;47.824;18.982;2023-07-20T14:04:11;29.80;50.10
40077;DHT22;25777;47.824;18.982;2023-07-20T14:11:52;29.60;52.70
40077;DHT22;25777;47.824;18.982;2023-07-20T14:14:18;29.50;49.60
40077;DHT22;25777;47.824;18.982;2023-07-20T14:16:46;29.50;51.80
40077;DHT22;25777;47.824;18.982;2023-07-20T14:19:16;29.00;53.20
40077;DHT22;25777;47.824;18.982;2023-07-20T14:21:44;29.10;54.70
40077;DHT22;25777;47.824;18.982;2023-07-20T14:24:18;29.20;52.80
40077;DHT22;25777;47.824;18.982;2023-07-20T14:26:45;29.00;52.80
40077;DHT22;25777;47.824;18.982;2023-07-20T14:29:13;29.10;52.50
40077;DHT22;25777;47.824;18.982;2023-07-20T14:31:40;28.90;53.20
40077;DHT22;25777;47.824;18.982;2023-07-20T14:34:06;29.10;54.90
40077;DHT22;25777;47.824;18.982;2023-07-20T14:36:31;29.30;54.30
40077;DHT22;25777;47.824;18.982;2023-07-20T14:38:57;29.10;54.50
40077;DHT22;25777;47.824;18.982;2023-07-20T14:43:52;28.60;50.60
40077;DHT22;25777;47.824;18.982;2023-07-20T14:46:17;28.50;51.10
40077;DHT22;25777;47.824;18.982;2023-07-20T14:48:51;28.50;50.90
40077;DHT22;25777;47.824;18.982;2023-07-20T14:51:19;28.30;51.70
40077;DHT22;25777;47.824;18.982;2023-07-20T14:53:56;28.30;52.20
40077;DHT22;25777;47.824;18.982;2023-07-20T14:56:22;28.50;52.20
40077;DHT22;25777;47.824;18.982;2023-07-20T14:58:54;28.30;53.20
40077;DHT22;25777;47.824;18.982;2023-07-20T15:01:19;27.90;52.20
40077;DHT22;25777;47.824;18.982;2023-07-20T15:03:51;27.90;53.70
40077;DHT22;25777;47.824;18.982;2023-07-20T15:06:21;28.00;54.00
40077;DHT22;25777;47.824;18.982;2023-07-20T15:08:50;28.10;54.20
40077;DHT22;25777;47.824;18.982;2023-07-20T15:11:15;28.20;55.00
40077;DHT22;25777;47.824;18.982;2023-07-20T15:13:54;28.20;52.40
40077;DHT22;25777;47.824;18.982;2023-07-20T15:21:19;27.80;54.60
40077;DHT22;25777;47.824;18.982;2023-07-20T15:23:45;27.90;55.70
40077;DHT22;25777;47.824;18.982;2023-07-20T15:26:28;27.90;55.10
40077;DHT22;25777;47.824;18.982;2023-07-20T15:28:55;27.90;53.40
40077;DHT22;25777;47.824;18.982;2023-07-20T15:33:58;27.60;57.80
40077;DHT22;25777;47.824;18.982;2023-07-20T15:36:25;27.60;56.10
40077;DHT22;25777;47.824;18.982;2023-07-20T15:38:51;27.80;55.60
40077;DHT22;25777;47.824;18.982;2023-07-20T15:41:18;27.70;55.40
40077;DHT22;25777;47.824;18.982;2023-07-20T15:43:43;27.60;56.90
40077;DHT22;25777;47.824;18.982;2023-07-20T15:48:45;27.60;55.00
40077;DHT22;25777;47.824;18.982;2023-07-20T15:53:46;27.70;55.30
40077;DHT22;25777;47.824;18.982;2023-07-20T15:56:13;27.60;53.80
40077;DHT22;25777;47.824;18.982;2023-07-20T15:58:50;27.60;53.50
40077;DHT22;25777;47.824;18.982;2023-07-20T16:01:35;27.50;53.60
40077;DHT22;25777;47.824;18.982;2023-07-20T16:04:15;27.50;52.60
40077;DHT22;25777;47.824;18.982;2023-07-20T16:06:48;27.40;53.70
40077;DHT22;25777;47.824;18.982;2023-07-20T16:09:14;27.30;54.70
40077;DHT22;25777;47.824;18.982;2023-07-20T16:11:46;27.20;54.90
40077;DHT22;25777;47.824;18.982;2023-07-20T16:14:19;27.20;54.40
40077;DHT22;25777;47.824;18.982;2023-07-20T16:21:53;26.80;57.50
40077;DHT22;25777;47.824;18.982;2023-07-20T16:24:19;26.80;56.40
40077;DHT22;25777;47.824;18.982;2023-07-20T16:26:49;26.90;56.10
40077;DHT22;25777;47.824;18.982;2023-07-20T16:29:24;26.80;56.00
40077;DHT22;25777;47.824;18.982;2023-07-20T16:31:56;26.80;56.60
40077;DHT22;25777;47.824;18.982;2023-07-20T16:42:36;26.50;56.60
40077;DHT22;25777;47.824;18.982;2023-07-20T16:45:02;26.50;59.30
40077;DHT22;25777;47.824;18.982;2023-07-20T16:47:28;26.40;58.40
40077;DHT22;25777;47.824;18.982;2023-07-20T16:49:55;26.30;58.70
40077;DHT22;25777;47.824;18.982;2023-07-20T16:54:51;25.90;59.00
40077;DHT22;25777;47.824;18.982;2023-07-20T16:59:59;25.90;59.90
40077;DHT22;25777;47.824;18.982;2023-07-20T17:02:40;25.90;60.30
40077;DHT22;25777;47.824;18.982;2023-07-20T17:07:41;25.90;61.20
40077;DHT22;25777;47.824;18.982;2023-07-20T17:10:08;25.80;61.00
40077;DHT22;25777;47.824;18.982;2023-07-20T17:15:16;25.60;63.70
40077;DHT22;25777;47.824;18.982;2023-07-20T17:17:49;25.40;64.30
40077;DHT22;25777;47.824;18.982;2023-07-20T17:22:58;25.20;68.00
40077;DHT22;25777;47.824;18.982;2023-07-20T17:25:24;25.20;69.40
40077;DHT22;25777;47.824;18.982;2023-07-20T17:27:52;25.10;70.60
40077;DHT22;25777;47.824;18.982;2023-07-20T17:30:21;24.90;70.90
40077;DHT22;25777;47.824;18.982;2023-07-20T17:32:49;24.80;71.60
40077;DHT22;25777;47.824;18.982;2023-07-20T17:37:54;24.50;73.40
40077;DHT22;25777;47.824;18.982;2023-07-20T17:40:27;24.50;73.90
40077;DHT22;25777;47.824;18.982;2023-07-20T17:42:54;24.40;73.10
40077;DHT22;25777;47.824;18.982;2023-07-20T17:50:23;24.10;73.20
40077;DHT22;25777;47.824;18.982;2023-07-20T17:55:36;23.90;74.00
40077;DHT22;25777;47.824;18.982;2023-07-20T17:58:04;23.80;75.10
40077;DHT22;25777;47.824;18.982;2023-07-20T18:00:33;23.60;75.60
40077;DHT22;25777;47.824;18.982;2023-07-20T18:02:58;23.40;75.90
40077;DHT22;25777;47.824;18.982;2023-07-20T18:05:24;23.40;76.80
40077;DHT22;25777;47.824;18.982;2023-07-20T18:07:55;23.30;77.30
40077;DHT22;25777;47.824;18.982;2023-07-20T18:12:50;23.20;77.90
40077;DHT22;25777;47.824;18.982;2023-07-20T18:15:19;23.00;79.40
40077;DHT22;25777;47.824;18.982;2023-07-20T18:17:46;22.90;80.70
40077;DHT22;25777;47.824;18.982;2023-07-20T18:22:54;22.60;83.20
40077;DHT22;25777;47.824;18.982;2023-07-20T18:27:50;22.30;85.10
40077;DHT22;25777;47.824;18.982;2023-07-20T18:30:16;22.20;86.40
40077;DHT22;25777;47.824;18.982;2023-07-20T18:32:44;22.10;87.30
40077;DHT22;25777;47.824;18.982;2023-07-20T18:35:18;22.00;88.20
40077;DHT22;25777;47.824;18.982;2023-07-20T18:37:44;21.90;89.30
40077;DHT22;25777;47.824;18.982;2023-07-20T18:40:12;21.80;90.30
40077;DHT22;25777;47.824;18.982;2023-07-20T18:45:15;21.60;91.10
40077;DHT22;25777;47.824;18.982;2023-07-20T18:47:42;21.50;91.30
40077;DHT22;25777;47.824;18.982;2023-07-20T18:50:10;21.50;91.60
40077;DHT22;25777;47.824;18.982;2023-07-20T18:52:37;21.30;92.10
40077;DHT22;25777;47.824;18.982;2023-07-20T18:55:17;21.30;92.30
40077;DHT22;25777;47.824;18.982;2023-07-20T19:00:19;21.10;92.90
40077;DHT22;25777;47.824;18.982;2023-07-20T19:02:59;21.00;93.10
40077;DHT22;25777;47.824;18.982;2023-07-20T19:05:27;20.80;93.80
40077;DHT22;25777;47.824;18.982;2023-07-20T19:07:53;20.70;94.40
40077;DHT22;25777;47.824;18.982;2023-07-20T19:10:19;20.80;94.60
40077;DHT22;25777;47.824;18.982;2023-07-20T19:12:46;20.60;95.20
40077;DHT22;25777;47.824;18.982;2023-07-20T19:15:18;20.50;95.70
40077;DHT22;25777;47.824;18.982;2023-07-20T19:17:44;20.30;96.10
40077;DHT22;25777;47.824;18.982;2023-07-20T19:20:10;20.40;96.20
40077;DHT22;25777;47.824;18.982;2023-07-20T19:22:41;20.60;95.80
40077;DHT22;25777;47.824;18.982;2023-07-20T19:30:30;20.40;96.10
40077;DHT22;25777;47.824;18.982;2023-07-20T19:32:56;20.30;96.10
40077;DHT22;25777;47.824;18.982;2023-07-20T19:37:51;20.10;96.70
40077;DHT22;25777;47.824;18.982;2023-07-20T19:43:02;20.20;96.10
40077;DHT22;25777;47.824;18.982;2023-07-20T19:48:35;20.20;95.90
40077;DHT22;25777;47.824;18.982;2023-07-20T19:51:08;20.20;96.20
40077;DHT22;25777;47.824;18.982;2023-07-20T19:56:19;20.10;96.20
40077;DHT22;25777;47.824;18.982;2023-07-20T20:01:23;20.00;97.00
40077;DHT22;25777;47.824;18.982;2023-07-20T20:03:55;19.80;97.50
40077;DHT22;25777;47.824;18.982;2023-07-20T20:06:21;19.80;97.10
40077;DHT22;25777;47.824;18.982;2023-07-20T20:08:49;19.70;97.30
40077;DHT22;25777;47.824;18.982;2023-07-20T20:11:15;19.70;97.30
40077;DHT22;25777;47.824;18.982;2023-07-20T20:13:48;19.30;98.60
40077;DHT22;25777;47.824;18.982;2023-07-20T20:16:16;19.10;99.50
40077;DHT22;25777;47.824;18.982;2023-07-20T20:21:29;18.70;99.90
40077;DHT22;25777;47.824;18.982;2023-07-20T20:24:10;18.60;99.90
40077;DHT22;25777;47.824;18.982;2023-07-20T20:26:38;18.70;99.90
40077;DHT22;25777;47.824;18.982;2023-07-20T20:37:00;18.80;99.90
40077;DHT22;25777;47.824;18.982;2023-07-20T20:42:10;18.60;99.90
40077;DHT22;25777;47.824;18.982;2023-07-20T20:44:37;18.50;99.90
40077;DHT22;25777;47.824;18.982;2023-07-20T20:47:11;18.50;99.90